Time;durP1;ratioP1;P1;durP2;ratioP2;P2;SDS_P1;SDS_P2;PMS_P1;PMS_P2;Temp;Humidity;BMP_temperature;BMP_pressure;BME280_temperature;BME280_humidity;BME280_pressure;Samples;Min_cycle;Max_cycle;Signal;HPM_P1;HPM_P2
2021/06/09 00:00:36;;;;;;;7.65;6.95;;;;;;;21.39;64.34;99229.84;3439473;28;20496;-69
2021/06/09 00:02:17;;;;;;;7.63;6.72;;;;;;;21.34;64.49;99230.63;3441170;28;20042;-70
2021/06/09 00:03:58;;;;;;;7.73;6.43;;;;;;;21.31;64.56;99225.75;3426932;28;20050;-69
2021/06/09 00:05:39;;;;;;;8.10;6.87;;;;;;;21.27;64.77;99235.56;3438617;28;20054;-72
2021/06/09 00:07:20;;;;;;;6.87;6.27;;;;;;;21.22;64.93;99238.28;3417717;28;20114;-72
2021/06/09 00:09:00;;;;;;;7.37;6.67;;;;;;;21.21;64.85;99231.22;3424651;28;20051;-72
2021/06/09 00:10:41;;;;;;;7.60;6.90;;;;;;;21.18;65.25;99237.19;3427720;28;20050;-73
2021/06/09 00:12:22;;;;;;;8.07;7.28;;;;;;;21.17;65.52;99234.75;3427756;28;20129;-71
2021/06/09 00:14:04;;;;;;;8.10;7.30;;;;;;;21.15;65.22;99237.75;3427861;28;20105;-73
2021/06/09 00:15:46;;;;;;;10.73;9.63;;;;;;;21.11;65.63;99236.66;3427660;28;20590;-72
2021/06/09 00:17:27;;;;;;;9.43;8.27;;;;;;;21.10;65.22;99235.84;3428976;28;20035;-73
2021/06/09 00:19:08;;;;;;;7.43;6.32;;;;;;;21.10;65.44;99235.84;3439631;28;20045;-71
2021/06/09 00:20:49;;;;;;;7.17;6.47;;;;;;;21.16;65.36;99233.13;3441177;28;20046;-71
2021/06/09 00:22:30;;;;;;;9.30;7.03;;;;;;;21.19;65.29;99230.69;3441145;28;20042;-71
2021/06/09 00:24:10;;;;;;;9.70;7.10;;;;;;;21.20;65.02;99234.22;3442870;28;20410;-71
2021/06/09 00:25:53;;;;;;;9.63;7.53;;;;;;;21.17;65.02;99227.44;3442211;28;20096;-71
2021/06/09 00:27:34;;;;;;;9.32;8.00;;;;;;;21.17;65.24;99229.31;3443605;28;20137;-71
2021/06/09 00:29:14;;;;;;;7.97;7.20;;;;;;;21.18;65.25;99237.19;3437728;28;20049;-70
2021/06/09 00:30:56;;;;;;;9.60;8.10;;;;;;;21.18;65.23;99239.09;3443592;28;20042;-71
2021/06/09 00:32:41;;;;;;;9.10;7.72;;;;;;;21.15;65.21;99240.47;3443466;28;20046;-71
2021/06/09 00:34:21;;;;;;;7.20;6.50;;;;;;;21.13;65.15;99234.50;3429291;28;20054;-71
2021/06/09 00:36:17;;;;;;;8.68;7.68;;;;;;;21.12;65.26;99236.41;3442907;28;20042;-73
2021/06/09 00:37:58;;;;;;;7.60;6.63;;;;;;;21.15;65.17;99236.94;3427169;28;20046;-70
2021/06/09 00:39:38;;;;;;;8.73;7.60;;;;;;;21.12;65.10;99239.13;3439984;28;20049;-71
2021/06/09 00:41:19;;;;;;;9.50;8.60;;;;;;;21.12;65.37;99238.31;3442951;28;20509;-71
2021/06/09 00:43:12;;;;;;;7.90;7.13;;;;;;;21.10;65.71;99241.28;3443418;28;20523;-71
2021/06/09 00:44:54;;;;;;;8.30;7.15;;;;;;;21.05;65.35;99243.19;3443579;28;20501;-73
2021/06/09 00:46:37;;;;;;;8.15;7.45;;;;;;;21.01;65.45;99239.41;3443396;28;20832;-72
2021/06/09 00:48:18;;;;;;;7.93;7.22;;;;;;;20.97;65.33;99241.06;3441227;28;20434;-70
2021/06/09 00:49:59;;;;;;;9.90;6.93;;;;;;;20.94;65.58;99238.91;3443386;28;20485;-70
2021/06/09 00:51:40;;;;;;;9.30;7.10;;;;;;;20.94;65.09;99241.59;3441259;28;20070;-72
2021/06/09 00:53:35;;;;;;;7.53;6.83;;;;;;;20.96;65.24;99234.81;3429753;28;20035;-71
2021/06/09 00:55:16;;;;;;;7.20;6.60;;;;;;;20.96;65.04;99239.41;3429743;28;20414;-71
2021/06/09 00:56:57;;;;;;;7.88;7.10;;;;;;;20.96;65.08;99239.41;3430973;28;20046;-73
2021/06/09 00:58:39;;;;;;;8.03;6.83;;;;;;;20.96;65.03;99234.00;3415332;29;20185;-71
2021/06/09 01:00:20;;;;;;;6.55;5.88;;;;;;;20.96;65.11;99245.66;3426985;28;20532;-71
2021/06/09 01:02:01;;;;;;;6.85;6.18;;;;;;;20.95;65.49;99235.91;3429851;28;20102;-71
2021/06/09 01:03:42;;;;;;;8.03;7.23;;;;;;;20.93;65.46;99246.19;3415146;29;20047;-71
2021/06/09 01:05:22;;;;;;;9.70;6.27;;;;;;;20.90;65.51;99244.03;3427142;28;20129;-70
2021/06/09 01:07:03;;;;;;;7.53;6.75;;;;;;;20.84;65.54;99245.94;3434894;28;20387;-70
2021/06/09 01:08:44;;;;;;;8.05;7.25;;;;;;;20.79;65.33;99242.44;3428329;28;20137;-69
2021/06/09 01:10:25;;;;;;;7.47;6.77;;;;;;;20.76;65.26;99245.69;3428646;28;20541;-70
2021/06/09 01:12:06;;;;;;;8.20;6.43;;;;;;;20.75;65.63;99247.56;3440253;28;20046;-70
2021/06/09 01:13:47;;;;;;;7.88;6.68;;;;;;;20.76;65.77;99251.91;3415480;29;20042;-68
2021/06/09 01:15:29;;;;;;;6.53;5.93;;;;;;;20.74;65.73;99247.84;3437580;28;20457;-70
2021/06/09 01:17:10;;;;;;;9.40;6.28;;;;;;;20.71;65.95;99232.97;3440905;28;20476;-70
2021/06/09 01:18:52;;;;;;;9.90;6.38;;;;;;;20.67;65.66;99235.38;3434237;28;20118;-71
2021/06/09 01:20:33;;;;;;;;;;;;;;;20.70;65.46;99231.31;3430143;28;20049;-70
2021/06/09 01:22:14;;;;;;;6.82;6.15;;;;;;;20.65;65.38;99239.44;3439515;28;20017;-71
2021/06/09 01:23:55;;;;;;;8.80;6.13;;;;;;;20.64;65.88;99237.84;3442718;28;20126;-71
2021/06/09 01:25:36;;;;;;;6.30;5.73;;;;;;;20.71;65.67;99248.41;3442782;28;20042;-68
2021/06/09 01:27:20;;;;;;;7.90;7.10;;;;;;;20.71;65.81;99243.00;3442742;28;20134;-70
2021/06/09 01:29:02;;;;;;;8.13;7.05;;;;;;;20.68;65.33;99250.56;3434929;28;20038;-70
2021/06/09 01:30:43;;;;;;;7.25;6.57;;;;;;;20.66;65.75;99246.50;3415912;28;20130;-69
2021/06/09 01:32:24;;;;;;;7.10;6.40;;;;;;;20.68;65.84;99234.31;3426580;28;20046;-69
2021/06/09 01:34:05;;;;;;;7.93;6.73;;;;;;;20.65;65.81;99234.03;3414972;29;20074;-69
2021/06/09 01:35:52;;;;;;;7.72;6.90;;;;;;;20.67;65.85;99238.09;3426352;28;20050;-69
2021/06/09 01:37:33;;;;;;;10.30;7.28;;;;;;;20.67;65.73;99242.69;3442591;28;20458;-69
2021/06/09 01:39:16;;;;;;;8.77;7.97;;;;;;;20.67;65.33;99238.09;3442439;28;20093;-68
2021/06/09 01:40:57;;;;;;;8.93;7.85;;;;;;;20.67;65.60;99240.00;3442610;28;20053;-67
2021/06/09 01:42:38;;;;;;;8.33;7.47;;;;;;;20.69;65.89;99251.38;3430734;28;20042;-69
2021/06/09 01:44:19;;;;;;;9.07;7.70;;;;;;;20.67;65.97;99245.41;3428890;28;20054;-68
2021/06/09 01:46:00;;;;;;;9.13;8.23;;;;;;;20.71;65.50;99249.22;3429504;28;20057;-68
2021/06/09 01:47:41;;;;;;;8.93;8.07;;;;;;;20.69;65.74;99251.38;3415154;29;20053;-69
2021/06/09 01:49:21;;;;;;;9.10;8.15;;;;;;;20.70;65.67;99252.97;3426973;28;20046;-70
2021/06/09 01:51:02;;;;;;;9.17;8.27;;;;;;;20.71;65.67;99256.53;3430456;28;20038;-69
2021/06/09 01:52:44;;;;;;;8.90;8.00;;;;;;;20.71;65.36;99265.47;3442551;28;20045;-69
2021/06/09 01:54:25;;;;;;;9.95;8.98;;;;;;;20.70;65.61;99252.97;3442471;28;20045;-69
2021/06/09 01:56:06;;;;;;;9.30;8.40;;;;;;;20.69;65.77;99256.78;3442720;28;20498;-70
2021/06/09 01:57:47;;;;;;;9.17;8.13;;;;;;;20.74;65.73;99254.06;3442285;28;20049;-69
2021/06/09 01:59:28;;;;;;;17.90;8.30;;;;;;;20.84;65.87;99253.25;3442474;28;20075;-70
2021/06/09 02:01:11;;;;;;;8.43;7.63;;;;;;;20.90;65.64;99257.56;3414731;28;20107;-70
2021/06/09 02:02:58;;;;;;;9.82;8.48;;;;;;;20.95;65.15;99252.16;3413953;29;20043;-70
2021/06/09 02:04:41;;;;;;;8.82;8.00;;;;;;;20.95;65.20;99254.88;3427158;28;20070;-69
2021/06/09 02:06:21;;;;;;;9.45;8.10;;;;;;;20.96;65.07;99252.97;3438579;28;20046;-69
2021/06/09 02:08:07;;;;;;;12.47;9.27;;;;;;;20.95;65.10;99254.06;3441978;28;20057;-70
2021/06/09 02:09:48;;;;;;;10.38;9.45;;;;;;;20.91;64.99;99254.59;3442168;28;20042;-69
2021/06/09 02:11:29;;;;;;;9.30;8.03;;;;;;;20.91;65.43;99251.09;3442015;28;20464;-70
2021/06/09 02:13:13;;;;;;;12.47;8.27;;;;;;;20.95;65.13;99256.75;3428608;28;20522;-70
2021/06/09 02:14:54;;;;;;;12.70;10.23;;;;;;;20.94;65.11;99249.72;3428679;28;20391;-70
2021/06/09 02:16:36;;;;;;;11.03;9.93;;;;;;;20.90;64.67;99252.97;3428948;28;20052;-70
2021/06/09 02:18:21;;;;;;;11.98;8.77;;;;;;;20.91;64.96;99249.19;3428595;28;20054;-71
2021/06/09 02:20:04;;;;;;;9.77;8.77;;;;;;;20.94;65.38;99250.53;3415173;28;20047;-68
2021/06/09 02:21:45;;;;;;;11.13;9.93;;;;;;;20.95;65.32;99246.72;3426035;28;20380;-70
2021/06/09 02:23:29;;;;;;;10.07;9.07;;;;;;;20.96;64.75;99245.66;3428721;28;20101;-71
2021/06/09 02:25:10;;;;;;;10.80;9.60;;;;;;;20.96;65.04;99242.13;3414531;29;20039;-69
2021/06/09 02:26:51;;;;;;;10.63;8.40;;;;;;;20.99;64.87;99239.69;3412081;29;20066;-70
2021/06/09 02:28:33;;;;;;;10.10;9.10;;;;;;;21.03;64.75;99238.03;3419434;28;20527;-69
2021/06/09 02:30:16;;;;;;;12.32;10.40;;;;;;;21.05;64.75;99249.41;3428482;28;20049;-72
2021/06/09 02:31:57;;;;;;;10.05;8.73;;;;;;;21.02;64.59;99241.03;3428628;28;20041;-71
2021/06/09 02:33:38;;;;;;;11.27;8.83;;;;;;;21.03;65.03;99242.66;3414579;29;20039;-71
2021/06/09 02:35:19;;;;;;;9.97;8.77;;;;;;;21.06;64.84;99245.63;3411902;29;20047;-71
2021/06/09 02:37:00;;;;;;;15.80;9.75;;;;;;;21.02;64.43;99235.63;3426965;28;20630;-73
2021/06/09 02:38:42;;;;;;;10.60;8.93;;;;;;;21.04;64.48;99246.97;3415101;29;20050;-71
2021/06/09 02:40:23;;;;;;;10.57;9.55;;;;;;;20.99;64.78;99244.28;3413561;28;20082;-70
2021/06/09 02:42:04;;;;;;;12.80;9.00;;;;;;;20.97;64.52;99247.28;3425779;28;20498;-72
2021/06/09 02:43:47;;;;;;;12.27;8.77;;;;;;;20.97;64.71;99241.06;3428362;28;20049;-71
2021/06/09 02:45:28;;;;;;;10.07;8.52;;;;;;;21.00;64.70;99245.91;3428593;28;20043;-71
2021/06/09 02:47:09;;;;;;;9.90;8.90;;;;;;;20.96;64.61;99248.38;3427912;28;20517;-70
2021/06/09 02:48:54;;;;;;;10.07;8.57;;;;;;;20.94;64.57;99247.03;3414023;29;20042;-71
2021/06/09 02:50:36;;;;;;;11.05;8.82;;;;;;;20.90;64.58;99252.97;3412722;28;20128;-69
2021/06/09 02:52:26;;;;;;;9.48;8.48;;;;;;;20.90;64.89;99252.97;3431050;28;20046;-69
2021/06/09 02:54:45;;;;;;;11.82;8.45;;;;;;;20.93;65.23;99254.31;3441237;28;20445;-70
2021/06/09 02:56:45;;;;;;;12.18;8.15;;;;;;;20.92;65.12;99261.63;3436873;28;20054;-70
2021/06/09 02:58:45;;;;;;;10.40;9.10;;;;;;;20.90;64.85;99260.28;3427468;28;20131;-69
2021/06/09 03:00:34;;;;;;;9.88;8.60;;;;;;;20.88;65.02;99266.00;3438535;28;20108;-71
2021/06/09 03:02:39;;;;;;;10.15;8.88;;;;;;;20.89;65.46;99273.03;3428349;28;20054;-70
2021/06/09 03:04:39;;;;;;;9.13;8.18;;;;;;;20.84;65.18;99266.81;3428228;28;20549;-70
2021/06/09 03:06:27;;;;;;;10.25;8.52;;;;;;;20.85;65.15;99269.22;3428287;28;20101;-71
2021/06/09 03:08:17;;;;;;;11.32;9.30;;;;;;;20.87;65.15;99255.41;3413762;29;20040;-70
2021/06/09 03:10:06;;;;;;;11.05;8.07;;;;;;;20.83;65.28;99262.44;3426687;28;20051;-70
2021/06/09 03:12:09;;;;;;;10.88;8.90;;;;;;;20.89;65.16;99266.81;3440354;28;20137;-70
2021/06/09 03:16:16;;;;;;;10.95;8.65;;;;;;;20.85;65.10;99271.94;3427086;28;20043;-70
2021/06/09 03:18:05;;;;;;;9.35;8.35;;;;;;;20.86;64.81;99272.78;3427215;28;20042;-69
2021/06/09 03:20:01;;;;;;;11.60;8.63;;;;;;;20.84;65.26;99275.75;3439763;28;20039;-70
2021/06/09 03:22:18;;;;;;;14.82;11.43;;;;;;;20.87;65.03;99271.66;3440392;28;20042;-71
2021/06/09 03:24:04;;;;;;;28.95;20.10;;;;;;;20.83;64.92;99274.13;3423021;28;20055;-71
2021/06/09 03:25:56;;;;;;;19.23;14.60;;;;;;;20.86;65.23;99268.16;3424533;28;20399;-70
2021/06/09 03:27:44;;;;;;;17.35;13.30;;;;;;;20.87;65.22;99277.09;3426013;28;20109;-69
2021/06/09 03:29:33;;;;;;;16.42;10.75;;;;;;;20.92;65.37;99272.47;3439766;28;20060;-69
2021/06/09 03:31:22;;;;;;;13.32;11.43;;;;;;;20.95;65.04;99267.59;3436671;28;20046;-71
2021/06/09 03:33:05;;;;;;;12.98;10.55;;;;;;;20.93;65.11;99276.00;3427051;28;20082;-71
2021/06/09 03:35:08;;;;;;;11.80;10.00;;;;;;;20.92;65.41;99280.59;3426834;28;20043;-71
2021/06/09 03:36:49;;;;;;;12.52;10.00;;;;;;;20.88;65.19;99278.69;3426929;28;20125;-72
2021/06/09 03:38:43;;;;;;;11.10;9.48;;;;;;;20.88;65.09;99278.69;3437864;28;20038;-71
2021/06/09 03:40:28;;;;;;;14.02;10.70;;;;;;;20.86;65.06;99286.31;3419934;28;20121;-71
2021/06/09 03:42:10;;;;;;;11.27;10.07;;;;;;;20.83;64.91;99278.72;3414128;28;20103;-70
2021/06/09 03:43:53;;;;;;;13.05;11.32;;;;;;;20.82;65.25;99277.91;3425607;28;20499;-70
2021/06/09 03:45:40;;;;;;;11.45;10.25;;;;;;;20.83;64.80;99289.53;3428020;28;20414;-69
2021/06/09 03:47:21;;;;;;;13.57;9.82;;;;;;;20.82;65.08;99283.31;3427640;28;20043;-72
2021/06/09 03:49:03;;;;;;;14.43;11.27;;;;;;;20.83;64.96;99287.66;3400599;29;20044;-70
2021/06/09 03:50:44;;;;;;;14.82;10.20;;;;;;;20.83;65.21;99282.25;3415438;28;20474;-70
2021/06/09 03:52:26;;;;;;;9.63;8.73;;;;;;;20.82;64.91;99272.47;3410917;28;20051;-70
2021/06/09 03:54:07;;;;;;;17.60;11.27;;;;;;;20.83;64.78;99284.13;3417704;28;20046;-70
2021/06/09 03:55:48;;;;;;;11.43;10.15;;;;;;;20.81;64.98;99279.00;3438262;28;20145;-68
2021/06/09 03:57:32;;;;;;;11.43;9.90;;;;;;;20.80;65.00;99269.22;3441116;28;20412;-70
2021/06/09 03:59:14;;;;;;;10.25;9.00;;;;;;;20.83;64.87;99274.13;3428676;28;20534;-71
2021/06/09 04:00:55;;;;;;;12.38;9.65;;;;;;;20.86;64.76;99276.28;3439425;28;20066;-69
2021/06/09 04:02:41;;;;;;;10.85;9.75;;;;;;;20.87;64.78;99269.78;3429285;28;20049;-71
2021/06/09 04:04:22;;;;;;;23.77;10.05;;;;;;;20.90;64.90;99280.06;3427342;28;20168;-71
2021/06/09 04:06:03;;;;;;;17.43;9.97;;;;;;;20.89;64.74;99266.81;3441113;28;20101;-71
2021/06/09 04:07:45;;;;;;;14.77;9.83;;;;;;;20.92;64.65;99277.91;3429211;28;20046;-71
2021/06/09 04:09:26;;;;;;;15.02;9.75;;;;;;;20.92;64.71;99274.38;3440741;28;20053;-71
2021/06/09 04:11:11;;;;;;;10.63;9.13;;;;;;;20.95;64.62;99270.31;3426643;28;20043;-70
2021/06/09 04:12:51;;;;;;;12.63;10.05;;;;;;;20.97;64.94;99268.16;3426532;28;20407;-71
2021/06/09 04:14:39;;;;;;;15.57;10.43;;;;;;;20.96;64.62;99277.34;3426810;28;20053;-70
2021/06/09 04:16:21;;;;;;;16.00;9.63;;;;;;;20.98;64.76;99272.47;3427291;28;20525;-73
2021/06/09 04:18:02;;;;;;;11.77;9.32;;;;;;;20.99;64.94;99274.91;3441225;28;20038;-73
2021/06/09 04:19:46;;;;;;;13.57;9.40;;;;;;;21.00;64.41;99278.44;3419508;28;20043;-72
2021/06/09 04:21:27;;;;;;;10.57;9.48;;;;;;;21.04;64.52;99268.66;3417793;28;20038;-71
2021/06/09 04:23:10;;;;;;;10.27;9.10;;;;;;;21.09;64.88;99277.59;3440564;28;20042;-72
2021/06/09 04:24:51;;;;;;;11.00;9.90;;;;;;;21.13;64.38;99272.44;3426214;28;20038;-71
2021/06/09 04:26:33;;;;;;;11.30;10.07;;;;;;;21.16;64.25;99271.09;3427445;28;20412;-72
2021/06/09 04:28:19;;;;;;;10.18;8.75;;;;;;;21.21;64.46;99271.06;3415521;29;20043;-71
2021/06/09 04:29:59;;;;;;;14.65;9.68;;;;;;;21.26;64.64;99277.28;3428154;28;20047;-71
2021/06/09 04:31:41;;;;;;;10.85;9.13;;;;;;;21.30;64.26;99278.38;3415772;29;20475;-71
2021/06/09 04:33:28;;;;;;;11.70;9.20;;;;;;;21.35;64.33;99272.13;3426089;28;20109;-70
2021/06/09 04:35:09;;;;;;;22.10;9.77;;;;;;;21.40;64.47;99282.16;3438872;28;20038;-69
2021/06/09 04:36:53;;;;;;;10.23;8.83;;;;;;;21.44;64.15;99278.63;3443375;28;20042;-70
2021/06/09 04:38:33;;;;;;;13.82;9.88;;;;;;;21.50;64.41;99277.53;3443360;28;20347;-69
2021/06/09 04:40:19;;;;;;;12.10;9.70;;;;;;;21.52;64.03;99278.03;3428956;28;20600;-70
2021/06/09 04:42:00;;;;;;;18.83;10.70;;;;;;;21.52;64.38;99277.25;3441426;28;20042;-71
2021/06/09 04:43:41;;;;;;;13.63;11.23;;;;;;;21.48;64.48;99276.19;3422126;28;20510;-71
2021/06/09 04:45:23;;;;;;;10.60;9.47;;;;;;;21.45;64.46;99284.84;3426894;28;20105;-69
2021/06/09 04:47:04;;;;;;;12.82;9.70;;;;;;;21.41;64.67;99275.66;3429813;28;20045;-70
2021/06/09 04:48:58;;;;;;;12.07;9.73;;;;;;;21.44;64.14;99285.94;3429815;28;20121;-69
2021/06/09 04:50:40;;;;;;;14.90;9.95;;;;;;;21.41;64.39;99279.19;3429953;28;20053;-71
2021/06/09 04:52:21;;;;;;;10.30;9.20;;;;;;;21.34;64.45;99274.00;3416436;28;20043;-70
2021/06/09 04:54:06;;;;;;;13.33;10.97;;;;;;;21.30;64.45;99283.78;3430871;28;20044;-71
2021/06/09 04:55:53;;;;;;;13.52;9.68;;;;;;;21.19;64.31;99274.03;3419395;28;20091;-72
2021/06/09 04:57:35;;;;;;;14.35;10.35;;;;;;;21.18;65.14;99283.28;3427967;28;20133;-71
2021/06/09 04:59:16;;;;;;;15.15;10.10;;;;;;;21.16;64.88;99282.72;3429663;28;20149;-71
2021/06/09 05:00:56;;;;;;;9.40;8.40;;;;;;;21.11;64.49;99280.84;3430013;28;20517;-71
2021/06/09 05:02:38;;;;;;;11.93;9.43;;;;;;;21.10;64.67;99283.84;3430356;28;20129;-72
2021/06/09 05:04:18;;;;;;;10.35;8.23;;;;;;;21.08;64.71;99281.38;3415024;29;20446;-70
2021/06/09 05:05:59;;;;;;;17.02;11.32;;;;;;;21.09;64.54;99283.03;3426881;28;20039;-71
2021/06/09 05:07:40;;;;;;;22.00;18.00;;;;;;;21.08;64.43;99280.59;3429689;28;20134;-69
2021/06/09 05:09:21;;;;;;;14.30;11.40;;;;;;;21.13;64.85;99278.66;3429469;28;20113;-71
2021/06/09 05:11:05;;;;;;;16.53;11.03;;;;;;;21.21;65.39;99284.63;3428612;28;20521;-71
2021/06/09 05:12:51;;;;;;;13.50;10.13;;;;;;;21.27;64.89;99278.94;3415907;28;20039;-68
2021/06/09 05:14:36;;;;;;;15.15;9.57;;;;;;;21.30;63.99;99283.78;3427528;28;20042;-72
2021/06/09 05:16:18;;;;;;;10.07;8.80;;;;;;;21.30;64.07;99281.09;3415030;29;20487;-71
2021/06/09 05:17:58;;;;;;;;;;;;;;;21.35;63.82;99281.06;3415767;29;20122;-70
2021/06/09 05:19:40;;;;;;;11.18;8.40;;;;;;;21.42;64.42;99282.69;3436383;28;19976;-69
2021/06/09 05:21:25;;;;;;;14.55;9.00;;;;;;;21.48;64.36;99284.31;3428494;28;20079;-70
2021/06/09 05:23:09;;;;;;;16.40;9.57;;;;;;;21.50;64.24;99290.25;3438917;28;20041;-73
2021/06/09 05:24:50;;;;;;;9.63;8.30;;;;;;;21.54;64.40;99286.72;3442600;28;20584;-71
2021/06/09 05:26:32;;;;;;;10.35;8.35;;;;;;;21.59;63.89;99285.09;3442809;28;20484;-70
2021/06/09 05:28:15;;;;;;;9.90;8.55;;;;;;;21.59;63.62;99285.09;3428521;28;20055;-71
2021/06/09 05:29:56;;;;;;;;;;;;;;;21.65;63.41;99282.06;3426726;28;20407;-72
2021/06/09 05:31:37;;;;;;;18.45;8.98;;;;;;;21.58;64.19;99284.25;3425653;28;19985;-70
2021/06/09 05:33:20;;;;;;;16.03;9.67;;;;;;;21.56;64.57;99276.41;3410417;28;20446;-70
2021/06/09 05:35:01;;;;;;;18.15;9.65;;;;;;;21.58;64.81;99288.88;3437796;28;20289;-71
2021/06/09 05:36:43;;;;;;;15.88;8.55;;;;;;;21.59;64.45;99283.19;3427950;28;20399;-71
2021/06/09 05:38:24;;;;;;;10.33;9.33;;;;;;;21.59;64.02;99285.91;3440144;28;20053;-74
2021/06/09 05:40:08;;;;;;;14.27;8.93;;;;;;;21.61;63.81;99283.72;3428150;28;20086;-72
2021/06/09 05:41:49;;;;;;;13.73;9.68;;;;;;;21.62;63.77;99279.09;3425991;28;20074;-72
2021/06/09 05:43:30;;;;;;;13.47;9.47;;;;;;;21.60;63.68;99284.78;3430730;28;20514;-74
2021/06/09 05:45:11;;;;;;;14.93;8.53;;;;;;;21.61;63.88;99286.44;3442605;28;20046;-72
2021/06/09 05:46:52;;;;;;;11.90;9.55;;;;;;;21.58;63.48;99286.16;3428174;28;20075;-72
2021/06/09 05:48:37;;;;;;;10.43;8.33;;;;;;;21.56;63.49;99289.16;3439811;28;20560;-72
2021/06/09 05:50:20;;;;;;;11.32;8.55;;;;;;;21.52;63.31;99291.59;3440708;28;20572;-74
2021/06/09 05:52:01;;;;;;;11.10;9.05;;;;;;;21.50;63.33;99292.97;3430522;28;20035;-73
2021/06/09 05:53:43;;;;;;;10.23;8.10;;;;;;;21.52;63.64;99291.59;3429498;28;20437;-72
2021/06/09 05:55:27;;;;;;;10.65;9.15;;;;;;;21.52;63.49;99285.38;3429716;28;20108;-72
2021/06/09 05:57:10;;;;;;;10.27;7.70;;;;;;;21.58;63.72;99292.38;3429165;28;20118;-71
2021/06/09 05:58:51;;;;;;;12.63;9.00;;;;;;;21.62;63.80;99295.38;3429056;28;20047;-70
2021/06/09 06:00:32;;;;;;;9.67;8.33;;;;;;;21.68;63.55;99289.63;3415290;28;20601;-71
2021/06/09 06:02:13;;;;;;;12.23;8.02;;;;;;;21.77;63.38;99293.41;3438924;28;20042;-71
2021/06/09 06:03:55;;;;;;;13.73;10.90;;;;;;;21.82;62.84;99294.50;3432089;28;20050;-72
2021/06/09 06:05:36;;;;;;;14.00;10.93;;;;;;;21.85;62.53;99294.75;3416768;28;20031;-71
2021/06/09 06:07:17;;;;;;;15.40;11.15;;;;;;;21.87;62.48;99294.47;3425658;28;20047;-70
2021/06/09 06:08:58;;;;;;;12.33;10.43;;;;;;;21.85;62.22;99288.50;3429451;28;20113;-71
2021/06/09 06:10:38;;;;;;;9.23;7.93;;;;;;;21.88;62.33;99293.38;3417501;28;20053;-70
2021/06/09 06:12:24;;;;;;;13.87;9.03;;;;;;;21.88;62.29;99296.88;3414162;29;20553;-72
2021/06/09 06:14:06;;;;;;;20.50;9.13;;;;;;;21.87;62.00;99294.47;3426594;28;20034;-71
2021/06/09 06:15:47;;;;;;;12.55;8.63;;;;;;;21.88;62.33;99298.78;3428424;28;20478;-70
2021/06/09 06:17:28;;;;;;;9.30;7.73;;;;;;;21.86;62.09;99293.63;3414209;29;20059;-71
2021/06/09 06:19:09;;;;;;;11.27;7.93;;;;;;;21.85;61.79;99293.94;3428726;28;20034;-72
2021/06/09 06:20:49;;;;;;;18.30;7.80;;;;;;;21.86;61.71;99292.81;3431639;28;20118;-71
2021/06/09 06:22:30;;;;;;;12.60;7.90;;;;;;;21.85;61.73;99299.34;3442111;28;20053;-71
2021/06/09 06:24:11;;;;;;;11.23;8.07;;;;;;;21.87;61.47;99308.03;3425375;28;20090;-70
2021/06/09 06:25:53;;;;;;;9.10;7.70;;;;;;;21.89;61.53;99297.69;3437974;28;20041;-70
2021/06/09 06:27:34;;;;;;;11.52;7.50;;;;;;;21.87;61.88;99302.63;3441668;28;20042;-71
2021/06/09 06:29:15;;;;;;;11.88;7.38;;;;;;;21.88;61.69;99304.22;3416291;28;20035;-72
2021/06/09 06:30:56;;;;;;;10.37;7.83;;;;;;;21.88;61.48;99293.38;3411520;28;20051;-71
2021/06/09 06:32:37;;;;;;;9.50;6.87;;;;;;;21.93;61.70;99304.19;3425406;28;20039;-73
2021/06/09 06:34:19;;;;;;;11.15;7.65;;;;;;;21.98;61.51;99304.16;3436309;28;20053;-71
2021/06/09 06:36:00;;;;;;;7.95;7.10;;;;;;;22.03;61.40;99306.84;3413981;29;20043;-72
2021/06/09 06:37:44;;;;;;;8.13;7.03;;;;;;;22.08;61.24;99309.56;3404221;29;20130;-71
2021/06/09 06:39:24;;;;;;;8.88;7.57;;;;;;;22.10;60.99;99312.81;3418456;28;20045;-70
2021/06/09 06:41:06;;;;;;;6.83;6.23;;;;;;;22.10;60.83;99312.81;3435105;28;20037;-71
2021/06/09 06:42:48;;;;;;;9.48;7.00;;;;;;;22.09;61.07;99313.06;3440635;28;20440;-73
2021/06/09 06:44:29;;;;;;;11.20;8.02;;;;;;;22.06;60.89;99309.00;3434747;28;20058;-72
2021/06/09 06:46:16;;;;;;;10.33;7.10;;;;;;;22.04;60.91;99311.19;3413707;29;20043;-70
2021/06/09 06:47:56;;;;;;;8.18;6.65;;;;;;;21.99;60.98;99316.63;3437828;28;20453;-70
2021/06/09 06:49:38;;;;;;;9.67;7.10;;;;;;;21.94;61.32;99319.38;3441604;28;20089;-71
2021/06/09 06:51:19;;;;;;;9.48;7.30;;;;;;;21.91;61.49;99320.75;3441547;28;20133;-72
2021/06/09 06:53:04;;;;;;;12.32;7.45;;;;;;;21.89;61.46;99319.41;3441295;28;20038;-71
2021/06/09 06:54:44;;;;;;;8.65;7.65;;;;;;;21.85;61.33;99326.50;3422588;28;20503;-71
2021/06/09 06:56:26;;;;;;;11.37;7.50;;;;;;;21.81;61.26;99322.69;3434259;28;20047;-72
2021/06/09 06:58:07;;;;;;;11.57;7.43;;;;;;;21.80;61.34;99329.22;3420556;28;20122;-69
2021/06/09 06:59:48;;;;;;;11.77;8.05;;;;;;;21.80;61.50;99324.59;3425376;28;20066;-71
2021/06/09 07:01:31;;;;;;;13.87;7.00;;;;;;;21.80;61.80;99331.94;3424427;28;20572;-72
2021/06/09 07:03:12;;;;;;;8.82;7.72;;;;;;;21.74;61.39;99333.84;3438780;28;20121;-72
2021/06/09 07:04:53;;;;;;;11.43;7.20;;;;;;;21.69;61.75;99340.09;3426505;28;20064;-72
2021/06/09 07:06:35;;;;;;;15.77;11.20;;;;;;;21.68;61.73;99332.22;3423203;28;20066;-73
2021/06/09 07:08:15;;;;;;;11.75;9.13;;;;;;;21.64;61.92;99331.19;3424214;28;20047;-70
2021/06/09 07:09:56;;;;;;;12.70;8.97;;;;;;;21.63;61.75;99335.78;3437875;28;20053;-71
2021/06/09 07:11:38;;;;;;;16.03;8.07;;;;;;;21.63;61.91;99335.78;3438849;28;20046;-70
2021/06/09 07:13:21;;;;;;;8.55;7.28;;;;;;;21.66;61.82;99339.84;3454926;28;20041;-70
2021/06/09 07:15:07;;;;;;;9.98;7.93;;;;;;;21.67;61.69;99336.06;3440038;28;20159;-70
2021/06/09 07:16:48;;;;;;;9.80;6.70;;;;;;;21.67;61.94;99339.56;3437488;28;20136;-70
2021/06/09 07:18:30;;;;;;;9.52;7.05;;;;;;;21.69;61.88;99344.72;3437813;28;20046;-71
2021/06/09 07:20:11;;;;;;;8.73;7.07;;;;;;;21.70;62.07;99339.00;3437784;28;20050;-72
2021/06/09 07:21:54;;;;;;;14.35;9.00;;;;;;;21.73;61.84;99352.00;3429709;28;20539;-76
2021/06/09 07:23:35;;;;;;;18.80;10.35;;;;;;;21.70;62.10;99340.91;3435935;28;20038;-73
2021/06/09 07:25:16;;;;;;;15.20;10.37;;;;;;;21.68;62.08;99343.09;3438608;28;20068;-74
2021/06/09 07:26:58;;;;;;;14.23;8.43;;;;;;;21.64;62.17;99348.25;3440170;28;20046;-72
2021/06/09 07:28:45;;;;;;;13.00;8.13;;;;;;;21.63;62.19;99348.53;3437195;28;20055;-71
2021/06/09 07:30:28;;;;;;;12.35;8.60;;;;;;;21.61;62.42;99346.09;3440467;28;20039;-72
2021/06/09 07:32:10;;;;;;;10.88;8.05;;;;;;;21.59;62.51;99345.56;3439836;28;20046;-74
2021/06/09 07:33:51;;;;;;;11.70;7.95;;;;;;;21.61;62.49;99348.81;3440344;28;20108;-72
2021/06/09 07:35:33;;;;;;;9.53;7.37;;;;;;;21.61;62.49;99348.81;3442692;28;20486;-72
2021/06/09 07:37:14;;;;;;;;;;;;;;;21.67;62.45;99347.69;3443568;28;20030;-73
2021/06/09 07:39:18;;;;;;;12.88;9.05;;;;;;;21.70;64.15;99352.56;3441655;28;19969;-71
2021/06/09 07:41:01;;;;;;;14.25;8.77;;;;;;;21.76;64.25;99346.06;3441964;28;20902;-71
2021/06/09 07:42:48;;;;;;;19.80;10.00;;;;;;;21.80;65.33;99346.31;3441604;28;20062;-72
2021/06/09 07:44:35;;;;;;;19.33;9.70;;;;;;;21.82;65.14;99346.03;3428735;28;20600;-74
2021/06/09 07:46:19;;;;;;;21.58;11.90;;;;;;;21.84;65.85;99349.25;3440623;28;20641;-72
2021/06/09 07:48:02;;;;;;;27.98;16.98;;;;;;;21.86;65.93;99350.63;3442802;28;20117;-71
2021/06/09 07:49:44;;;;;;;21.45;13.15;;;;;;;21.87;65.86;99351.44;3429644;28;20449;-72
2021/06/09 07:51:26;;;;;;;19.13;10.27;;;;;;;21.91;65.69;99358.72;3442354;28;20141;-72
2021/06/09 07:53:10;;;;;;;21.25;9.50;;;;;;;21.90;65.30;99361.75;3441689;28;20500;-74
2021/06/09 07:54:53;;;;;;;14.18;7.57;;;;;;;21.86;64.90;99363.38;3431034;28;20046;-75
2021/06/09 07:56:37;;;;;;;10.70;7.25;;;;;;;21.81;65.13;99363.38;3443480;28;20193;-75
2021/06/09 07:58:21;;;;;;;15.30;7.38;;;;;;;21.77;64.87;99363.13;3444029;28;20058;-73
2021/06/09 08:00:07;;;;;;;10.95;7.05;;;;;;;21.75;64.89;99366.13;3432440;28;20047;-75
2021/06/09 08:01:55;;;;;;;11.13;7.55;;;;;;;21.75;64.72;99365.31;3444369;28;20138;-74
2021/06/09 08:03:37;;;;;;;9.18;7.07;;;;;;;21.71;64.10;99367.78;3416615;29;20569;-74
2021/06/09 08:05:17;;;;;;;16.02;8.57;;;;;;;21.70;64.80;99370.75;3427441;28;20482;-74